createdAt,value
2019-01-02T00:00:05.951Z,79.20
2019-01-02T00:01:07.878Z,79.30
2019-01-02T00:02:05.870Z,79.30
2019-01-02T00:03:06.217Z,79.40
2019-01-02T00:04:05.582Z,79.40
2019-01-02T00:05:05.990Z,79.40
2019-01-02T00:06:05.338Z,79.40
2019-01-02T00:07:05.511Z,79.50
2019-01-02T00:08:08.495Z,79.50
2019-01-02T00:09:05.763Z,79.50
2019-01-02T00:10:05.890Z,79.60
2019-01-02T00:11:06.312Z,79.60
2019-01-02T00:12:05.745Z,79.70
2019-01-02T00:13:06.121Z,79.80
2019-01-02T00:14:05.580Z,79.70
2019-01-02T00:15:05.652Z,79.60
2019-01-02T00:16:06.086Z,79.70
2019-01-02T00:17:05.563Z,79.70
2019-01-02T00:18:08.151Z,79.50
2019-01-02T00:19:05.334Z,79.50
2019-01-02T00:20:05.716Z,79.60
2019-01-02T00:21:05.289Z,79.70
2019-01-02T00:22:05.641Z,79.80
2019-01-02T00:23:08.186Z,79.80
2019-01-02T00:24:05.403Z,79.80
2019-01-02T00:25:08.250Z,80.00
2019-01-02T00:26:05.347Z,80.00
2019-01-02T00:27:05.791Z,80.00
2019-01-02T00:28:05.044Z,80.10
2019-01-02T00:29:05.061Z,80.30
2019-01-02T00:30:10.808Z,80.30
2019-01-02T00:31:05.160Z,80.30
2019-01-02T00:32:05.641Z,80.30
2019-01-02T00:33:05.008Z,80.50
2019-01-02T00:34:05.109Z,80.40
2019-01-02T00:35:05.438Z,80.50
2019-01-02T00:36:08.286Z,80.60
2019-01-02T00:37:05.398Z,80.60
2019-01-02T00:38:05.801Z,80.60
2019-01-02T00:39:05.091Z,80.70
2019-01-02T00:40:05.386Z,80.70
2019-01-02T00:41:05.751Z,80.80
2019-01-02T00:42:06.056Z,80.80
2019-01-02T00:43:05.454Z,80.80
2019-01-02T00:44:08.024Z,80.90
2019-01-02T00:45:05.287Z,80.90
2019-01-02T00:46:05.790Z,80.90
2019-01-02T00:47:05.882Z,80.90
2019-01-02T00:48:06.250Z,80.90
2019-01-02T00:49:05.589Z,80.90
2019-01-02T00:50:05.333Z,80.90
2019-01-02T00:51:08.289Z,80.90
2019-01-02T00:52:07.896Z,80.90
2019-01-02T00:53:06.400Z,80.90
2019-01-02T00:54:08.249Z,81.00
2019-01-02T00:55:07.920Z,81.00
2019-01-02T00:56:07.692Z,81.10
2019-01-02T00:57:10.824Z,81.00
2019-01-02T00:58:06.272Z,81.00
2019-01-02T00:59:05.668Z,80.90
2019-01-02T01:00:11.013Z,81.00
2019-01-02T01:01:07.943Z,81.10
2019-01-02T01:02:05.896Z,81.10
2019-01-02T01:03:06.238Z,81.20
2019-01-02T01:04:05.831Z,81.20
2019-01-02T01:05:06.479Z,81.10
2019-01-02T01:06:05.961Z,81.10
2019-01-02T01:07:07.594Z,81.10
2019-01-02T01:08:05.590Z,81.10
2019-01-02T01:09:08.152Z,81.00
2019-01-02T01:10:05.370Z,81.00
2019-01-02T01:11:08.194Z,81.00
2019-01-02T01:12:05.413Z,80.90
2019-01-02T01:13:05.779Z,80.90
2019-01-02T01:14:05.030Z,81.00
2019-01-02T01:15:05.379Z,80.80
2019-01-02T01:16:10.948Z,80.80
2019-01-02T01:17:06.037Z,80.80
2019-01-02T01:18:05.493Z,80.70
2019-01-02T01:19:05.796Z,80.60
2019-01-02T01:20:06.124Z,80.50
2019-01-02T01:21:05.518Z,80.50
2019-01-02T01:22:08.369Z,80.30
2019-01-02T01:23:05.648Z,80.30
2019-01-02T01:24:07.597Z,80.30
2019-01-02T01:25:05.539Z,80.30
2019-01-02T01:26:10.990Z,80.30
2019-01-02T01:27:07.924Z,80.40
2019-01-02T01:28:05.951Z,80.50
2019-01-02T01:29:05.440Z,80.60
2019-01-02T01:30:05.208Z,80.80
2019-01-02T01:31:05.262Z,81.00
2019-01-02T01:32:05.697Z,81.10
2019-01-02T01:33:05.255Z,81.40
2019-01-02T01:34:05.513Z,81.60
2019-01-02T01:35:08.415Z,81.80
2019-01-02T01:36:05.718Z,81.90
2019-01-02T01:37:05.763Z,82.00
2019-01-02T01:38:08.686Z,82.10
2019-01-02T01:39:08.396Z,82.10
2019-01-02T01:40:05.434Z,82.20
2019-01-02T01:41:05.851Z,82.20
2019-01-02T01:42:04.992Z,82.20
2019-01-02T01:43:05.329Z,82.20
2019-01-02T01:44:05.769Z,82.20
2019-01-02T01:45:08.565Z,82.10
2019-01-02T01:46:08.403Z,82.00
2019-01-02T01:47:08.075Z,82.20
2019-01-02T01:48:05.163Z,82.10
2019-01-02T01:49:05.537Z,82.10
2019-01-02T01:50:05.545Z,82.10
2019-01-02T01:51:08.182Z,81.80
2019-01-02T01:52:05.534Z,81.80
2019-01-02T01:53:05.877Z,81.80
2019-01-02T01:54:08.594Z,81.80
2019-01-02T01:55:08.442Z,81.80
2019-01-02T01:56:08.263Z,81.70
2019-01-02T01:57:05.465Z,81.70
2019-01-02T01:58:08.294Z,81.80
2019-01-02T01:59:05.251Z,81.80
2019-01-02T02:00:05.738Z,81.80
2019-01-02T02:01:05.045Z,81.80
2019-01-02T02:02:07.617Z,81.80
2019-01-02T02:03:05.909Z,81.80
2019-01-02T02:04:05.424Z,81.80
2019-01-02T02:05:05.500Z,81.70
2019-01-02T02:06:05.804Z,81.70
2019-01-02T02:07:05.167Z,81.60
2019-01-02T02:08:05.242Z,81.60
2019-01-02T02:09:05.707Z,81.70
2019-01-02T02:10:07.693Z,81.80
2019-01-02T02:11:05.736Z,81.80
2019-01-02T02:12:06.099Z,81.80
2019-01-02T02:13:05.622Z,81.90
2019-01-02T02:14:08.342Z,82.10
2019-01-02T02:15:05.668Z,82.10
2019-01-02T02:16:05.121Z,82.20
2019-01-02T02:17:07.852Z,82.30
2019-01-02T02:18:08.428Z,82.20
2019-01-02T02:19:05.523Z,82.20
2019-01-02T02:20:06.118Z,82.30
2019-01-02T02:21:05.562Z,82.30
2019-01-02T02:22:05.613Z,82.50
2019-01-02T02:23:06.147Z,82.50
2019-01-02T02:24:08.068Z,82.40
2019-01-02T02:25:05.109Z,82.40
2019-01-02T02:26:05.448Z,82.40
2019-01-02T02:27:05.824Z,82.40
2019-01-02T02:28:05.919Z,82.40
2019-01-02T02:29:06.345Z,82.40
2019-01-02T02:30:05.346Z,82.40
2019-01-02T02:32:05.268Z,82.30
2019-01-02T02:33:08.225Z,82.30
2019-01-02T02:34:08.795Z,82.30
2019-01-02T02:35:05.143Z,82.30
2019-01-02T02:36:13.268Z,82.10
2019-01-02T02:37:05.015Z,82.20
2019-01-02T02:38:07.654Z,82.00
2019-01-02T02:39:05.766Z,82.00
2019-01-02T02:40:05.177Z,82.10
2019-01-02T02:41:05.629Z,82.00
2019-01-02T02:42:05.464Z,82.00
2019-01-02T02:43:08.620Z,82.10
2019-01-02T02:44:06.111Z,82.10
2019-01-02T02:45:05.833Z,82.10
2019-01-02T02:46:08.175Z,82.00
2019-01-02T02:47:05.470Z,82.00
2019-01-02T02:48:05.856Z,82.10
2019-01-02T02:49:05.564Z,82.00
2019-01-02T02:50:05.132Z,82.10
2019-01-02T02:51:05.548Z,82.10
2019-01-02T02:52:06.028Z,82.20
2019-01-02T02:53:05.381Z,82.20
2019-01-02T02:54:06.189Z,82.20
2019-01-02T02:55:07.634Z,82.20
2019-01-02T02:56:06.091Z,82.20
2019-01-02T02:57:08.094Z,82.30
2019-01-02T02:58:05.026Z,82.30
2019-01-02T02:59:05.425Z,82.30
2019-01-02T03:00:05.781Z,82.40
2019-01-02T03:01:06.254Z,82.40
2019-01-02T03:02:05.949Z,82.40
2019-01-02T03:03:05.368Z,82.50
2019-01-02T03:04:05.821Z,82.50
2019-01-02T03:05:05.441Z,82.40
2019-01-02T03:06:08.414Z,82.60
2019-01-02T03:07:05.463Z,82.60
2019-01-02T03:08:06.206Z,82.70
2019-01-02T03:09:08.152Z,82.70
2019-01-02T03:10:05.317Z,82.70
2019-01-02T03:11:06.232Z,82.70
2019-01-02T03:12:08.289Z,82.70
2019-01-02T03:13:05.637Z,82.70
2019-01-02T03:14:05.328Z,82.70
2019-01-02T03:15:05.769Z,82.70
2019-01-02T03:16:06.235Z,82.60
2019-01-02T03:17:06.343Z,82.60
2019-01-02T03:18:08.458Z,82.70
2019-01-02T03:19:05.829Z,82.70
2019-01-02T03:20:10.792Z,82.60
2019-01-02T03:21:07.677Z,82.60
2019-01-02T03:22:08.520Z,82.60
2019-01-02T03:23:06.161Z,82.70
2019-01-02T03:24:05.593Z,82.70
2019-01-02T03:25:06.033Z,82.70
2019-01-02T03:26:05.712Z,82.70
2019-01-02T03:27:05.788Z,82.60
2019-01-02T03:28:08.771Z,82.50
2019-01-02T03:29:05.455Z,82.50
2019-01-02T03:30:06.155Z,82.50
2019-01-02T03:31:05.969Z,82.50
2019-01-02T03:32:05.554Z,82.50
2019-01-02T03:33:06.042Z,82.50
2019-01-02T03:34:07.706Z,82.30
2019-01-02T03:35:05.667Z,82.20
2019-01-02T03:36:05.722Z,82.20
2019-01-02T03:37:05.842Z,82.20
2019-01-02T03:38:06.059Z,82.20
2019-01-02T03:39:05.277Z,82.20
2019-01-02T03:40:05.340Z,82.20
2019-01-02T03:41:08.209Z,82.20
2019-01-02T03:42:05.178Z,82.20
2019-01-02T03:43:05.298Z,82.20
2019-01-02T03:44:05.578Z,82.20
2019-01-02T03:45:05.708Z,82.20
2019-01-02T03:46:05.763Z,82.20
2019-01-02T03:47:05.797Z,82.20
2019-01-02T03:48:05.886Z,82.20
2019-01-02T03:49:06.094Z,82.20
2019-01-02T03:50:07.924Z,82.20
2019-01-02T03:51:08.521Z,82.30
2019-01-02T03:52:08.081Z,82.30
2019-01-02T03:53:05.004Z,82.30
2019-01-02T03:54:07.597Z,82.30
2019-01-02T03:55:08.183Z,82.30
2019-01-02T03:56:05.143Z,82.30
2019-01-02T03:57:05.148Z,82.30
2019-01-02T03:58:05.263Z,82.30
2019-01-02T03:59:05.306Z,82.30
2019-01-02T04:00:07.998Z,82.40
2019-01-02T04:01:04.975Z,82.30
2019-01-02T04:02:10.098Z,82.40
2019-01-02T04:03:05.004Z,82.40
2019-01-02T04:04:07.621Z,82.50
2019-01-02T04:05:05.491Z,82.50
2019-01-02T04:06:05.542Z,82.50
2019-01-02T04:07:10.611Z,82.70
2019-01-02T04:08:05.523Z,82.70
2019-01-02T04:09:05.552Z,82.80
2019-01-02T04:10:05.645Z,82.80
2019-01-02T04:11:05.643Z,82.90
2019-01-02T04:12:08.266Z,83.00
2019-01-02T04:13:07.694Z,83.00
2019-01-02T04:14:05.705Z,83.00
2019-01-02T04:15:08.313Z,83.30
2019-01-02T04:16:05.344Z,83.10
2019-01-02T04:17:08.066Z,83.30
2019-01-02T04:18:05.061Z,83.20
2019-01-02T04:19:05.233Z,83.30
2019-01-02T04:20:05.287Z,83.30
2019-01-02T04:21:10.396Z,83.50
2019-01-02T04:22:05.479Z,83.50
2019-01-02T04:23:08.209Z,83.60
2019-01-02T04:24:05.161Z,83.80
2019-01-02T04:25:05.361Z,83.70
2019-01-02T04:26:08.085Z,83.70
2019-01-02T04:27:05.097Z,83.70
2019-01-02T04:28:05.317Z,83.80
2019-01-02T04:29:05.362Z,83.80
2019-01-02T04:30:08.309Z,84.00
2019-01-02T04:31:07.704Z,84.10
2019-01-02T04:32:05.684Z,84.10
2019-01-02T04:33:08.300Z,84.10
2019-01-02T04:34:07.868Z,84.20
2019-01-02T04:35:08.347Z,84.20
2019-01-02T04:36:05.264Z,84.10
2019-01-02T04:37:05.394Z,84.10
2019-01-02T04:38:05.428Z,84.10
2019-01-02T04:39:05.574Z,84.10
2019-01-02T04:40:05.621Z,84.10
2019-01-02T04:41:10.850Z,84.10
2019-01-02T04:42:08.404Z,84.10
2019-01-02T04:43:07.914Z,84.10
2019-01-02T04:44:05.816Z,84.10
2019-01-02T04:45:08.375Z,84.10
2019-01-02T04:46:05.278Z,84.10
2019-01-02T04:47:05.401Z,84.10
2019-01-02T04:48:05.570Z,84.30
2019-01-02T04:49:05.629Z,84.00
2019-01-02T04:50:05.318Z,84.00
2019-01-02T04:51:07.857Z,84.00
2019-01-02T04:52:05.778Z,84.00
2019-01-02T04:53:05.852Z,84.10
2019-01-02T04:54:06.035Z,84.10
2019-01-02T04:55:07.606Z,84.20
2019-01-02T04:56:05.532Z,84.10
2019-01-02T04:57:05.633Z,84.10
2019-01-02T04:58:05.675Z,84.10
2019-01-02T04:59:05.745Z,84.10
2019-01-02T05:00:08.306Z,84.10
2019-01-02T05:01:05.276Z,84.20
2019-01-02T05:02:05.316Z,84.20
2019-01-02T05:03:05.396Z,84.20
2019-01-02T05:04:05.454Z,84.20
2019-01-02T05:05:08.154Z,84.20
2019-01-02T05:06:05.134Z,84.20
2019-01-02T05:07:05.164Z,84.20
2019-01-02T05:08:05.196Z,84.20
2019-01-02T05:09:07.910Z,84.10
2019-01-02T05:10:05.931Z,84.10
2019-01-02T05:11:04.994Z,83.90
2019-01-02T05:12:07.558Z,83.90
2019-01-02T05:13:05.477Z,83.90
2019-01-02T05:14:08.108Z,83.90
2019-01-02T05:15:05.087Z,83.90
2019-01-02T05:16:05.142Z,83.80
2019-01-02T05:17:07.771Z,83.80
2019-01-02T05:18:05.760Z,83.80
2019-01-02T05:19:05.896Z,83.80
2019-01-02T05:20:04.964Z,83.80
2019-01-02T05:21:05.060Z,83.80
2019-01-02T05:22:05.115Z,83.70
2019-01-02T05:23:05.195Z,83.90
2019-01-02T05:24:05.392Z,83.60
2019-01-02T05:25:08.624Z,83.70
2019-01-02T05:26:08.083Z,83.70
2019-01-02T05:27:04.996Z,83.70
2019-01-02T05:28:05.089Z,83.70
2019-01-02T05:29:07.816Z,83.80
2019-01-02T05:30:05.782Z,83.70
2019-01-02T05:31:08.476Z,83.80
2019-01-02T05:32:05.429Z,83.80
2019-01-02T05:33:05.494Z,83.70
2019-01-02T05:34:05.529Z,83.70
2019-01-02T05:35:10.595Z,83.60
2019-01-02T05:36:05.579Z,83.60
2019-01-02T05:37:05.663Z,83.60
2019-01-02T05:38:05.704Z,83.60
2019-01-02T05:39:05.828Z,83.60
2019-01-02T05:40:10.332Z,83.40
2019-01-02T05:41:05.341Z,83.40
2019-01-02T05:42:07.927Z,83.10
2019-01-02T05:43:08.323Z,82.90
2019-01-02T05:44:05.210Z,82.90
2019-01-02T05:45:05.116Z,83.00
2019-01-02T05:46:05.178Z,82.90
2019-01-02T05:47:05.688Z,82.80
2019-01-02T05:48:08.205Z,82.70
2019-01-02T05:49:05.103Z,82.70
2019-01-02T05:50:10.273Z,82.60
2019-01-02T05:51:10.416Z,82.60
2019-01-02T05:52:05.389Z,82.60
2019-01-02T05:53:10.587Z,82.50
2019-01-02T05:54:05.590Z,82.50
2019-01-02T05:55:08.265Z,82.50
2019-01-02T05:56:05.208Z,82.40
2019-01-02T05:57:05.278Z,82.40
2019-01-02T05:58:05.306Z,82.40
2019-01-02T05:59:08.127Z,82.30
2019-01-02T06:00:05.106Z,82.30
2019-01-02T06:01:07.995Z,82.30
2019-01-02T06:02:08.460Z,82.50
2019-01-02T06:03:05.590Z,82.40
2019-01-02T06:04:05.694Z,82.50
2019-01-02T06:05:05.787Z,82.50
2019-01-02T06:06:08.385Z,82.50
2019-01-02T06:07:05.296Z,82.50
2019-01-02T06:08:05.363Z,82.50
2019-01-02T06:09:10.504Z,82.50
2019-01-02T06:10:08.005Z,82.40
2019-01-02T06:11:05.936Z,82.50
2019-01-02T06:12:05.009Z,82.50
2019-01-02T06:13:05.261Z,82.40
2019-01-02T06:14:05.558Z,82.40
2019-01-02T06:15:08.275Z,82.40
2019-01-02T06:16:05.282Z,82.30
2019-01-02T06:17:08.196Z,82.40
2019-01-02T06:18:10.235Z,82.40
2019-01-02T06:19:05.205Z,82.50
2019-01-02T06:20:05.245Z,82.40
2019-01-02T06:21:10.546Z,82.40
2019-01-02T06:22:05.626Z,82.30
2019-01-02T06:23:05.870Z,82.30
2019-01-02T06:24:05.030Z,82.30
2019-01-02T06:25:05.171Z,82.30
2019-01-02T06:26:05.236Z,82.20
2019-01-02T06:27:05.270Z,82.20
2019-01-02T06:28:05.307Z,82.20
2019-01-02T06:29:05.271Z,82.10
2019-01-02T06:30:05.483Z,82.10
2019-01-02T06:31:08.133Z,82.10
2019-01-02T06:32:05.093Z,82.10
2019-01-02T06:33:05.081Z,82.10
2019-01-02T06:34:05.174Z,82.10
2019-01-02T06:35:05.296Z,82.10
2019-01-02T06:36:07.918Z,82.10
2019-01-02T06:37:06.001Z,82.00
2019-01-02T06:38:05.013Z,82.00
2019-01-02T06:39:05.237Z,82.00
2019-01-02T06:40:05.410Z,81.90
2019-01-02T06:41:05.568Z,81.90
2019-01-02T06:42:08.229Z,81.70
2019-01-02T06:43:05.143Z,81.70
2019-01-02T06:44:08.052Z,81.50
2019-01-02T06:45:05.090Z,81.50
2019-01-02T06:46:05.115Z,81.40
2019-01-02T06:47:12.812Z,81.40
2019-01-02T06:48:13.301Z,81.30
2019-01-02T06:49:07.869Z,81.30
2019-01-02T06:50:08.309Z,81.60
2019-01-02T06:51:05.261Z,81.30
2019-01-02T06:52:05.391Z,81.20
2019-01-02T06:53:05.510Z,81.00
2019-01-02T06:54:05.592Z,80.90
2019-01-02T06:55:05.669Z,81.00
2019-01-02T06:56:05.699Z,80.80
2019-01-02T06:57:08.280Z,80.80
2019-01-02T06:58:05.217Z,80.80
2019-01-02T06:59:07.951Z,80.70
2019-01-02T07:00:08.437Z,80.60
2019-01-02T07:01:05.386Z,80.60
2019-01-02T07:02:05.410Z,80.50
2019-01-02T07:03:08.055Z,80.50
2019-01-02T07:04:05.017Z,80.50
2019-01-02T07:05:07.967Z,80.50
2019-01-02T07:06:08.547Z,80.20
2019-01-02T07:07:05.530Z,80.20
2019-01-02T07:08:05.675Z,80.20
2019-01-02T07:09:08.236Z,80.20
2019-01-02T07:10:05.202Z,80.20
2019-01-02T07:11:07.846Z,80.20
2019-01-02T07:12:08.309Z,80.00
2019-01-02T07:13:07.815Z,79.90
2019-01-02T07:14:08.307Z,79.90
2019-01-02T07:15:10.491Z,79.80
2019-01-02T07:16:08.001Z,79.90
2019-01-02T07:17:10.984Z,79.80
2019-01-02T07:18:05.953Z,79.80
2019-01-02T07:19:07.713Z,79.80
2019-01-02T07:20:05.932Z,79.70
2019-01-02T07:21:05.160Z,79.80
2019-01-02T07:22:07.884Z,79.80
2019-01-02T07:23:05.832Z,79.90
2019-01-02T07:24:05.933Z,79.80
2019-01-02T07:25:05.096Z,79.80
2019-01-02T07:26:05.202Z,79.70
2019-01-02T07:27:07.875Z,79.30
2019-01-02T07:28:06.002Z,79.30
2019-01-02T07:29:05.246Z,79.30
2019-01-02T07:30:08.054Z,79.10
2019-01-02T07:31:05.997Z,79.10
2019-01-02T07:32:07.677Z,78.90
2019-01-02T07:33:05.815Z,78.90
2019-01-02T07:34:06.011Z,78.80
2019-01-02T07:35:05.162Z,78.70
2019-01-02T07:36:05.873Z,78.70
2019-01-02T07:37:05.987Z,78.70
2019-01-02T07:38:05.036Z,78.80
2019-01-02T07:39:08.219Z,78.80
2019-01-02T07:40:05.220Z,78.80
2019-01-02T07:41:05.749Z,78.80
2019-01-02T07:42:05.888Z,78.70
2019-01-02T07:43:05.626Z,78.70
2019-01-02T07:44:05.766Z,78.70
2019-01-02T07:45:05.858Z,78.70
2019-01-02T07:46:04.972Z,78.50
2019-01-02T07:47:05.104Z,78.50
2019-01-02T07:48:05.130Z,78.70
2019-01-02T07:49:07.795Z,78.50
2019-01-02T07:50:05.730Z,78.50
2019-01-02T07:51:08.396Z,78.50
2019-01-02T07:52:07.976Z,78.60
2019-01-02T07:53:05.977Z,78.50
2019-01-02T07:54:07.678Z,78.30
2019-01-02T07:55:05.691Z,78.30
2019-01-02T07:56:08.362Z,78.30
2019-01-02T07:57:07.827Z,78.30
2019-01-02T07:58:05.844Z,78.30
2019-01-02T07:59:07.903Z,78.30
2019-01-02T08:00:05.998Z,78.30
2019-01-02T08:01:10.317Z,78.30
2019-01-02T08:02:05.233Z,78.30
2019-01-02T08:03:05.330Z,78.30
2019-01-02T08:04:07.925Z,78.30
2019-01-02T08:05:05.950Z,78.30
2019-01-02T08:06:04.968Z,78.30
2019-01-02T08:07:05.071Z,78.20
2019-01-02T08:08:05.269Z,78.20
2019-01-02T08:09:07.939Z,78.10
2019-01-02T08:10:05.981Z,77.90
2019-01-02T08:11:10.193Z,78.00
2019-01-02T08:12:05.223Z,78.00
2019-01-02T08:13:05.339Z,78.00
2019-01-02T08:14:08.016Z,78.00
2019-01-02T08:15:07.464Z,78.10
2019-01-02T08:16:07.903Z,78.10
2019-01-02T08:17:05.832Z,78.10
2019-01-02T08:18:05.853Z,78.00
2019-01-02T08:19:10.943Z,77.90
2019-01-02T08:20:05.145Z,77.90
2019-01-02T08:21:05.402Z,77.70
2019-01-02T08:22:05.502Z,77.70
2019-01-02T08:23:05.532Z,77.60
2019-01-02T08:24:05.571Z,76.80
2019-01-02T08:25:08.257Z,76.70
2019-01-02T08:26:07.824Z,76.70
2019-01-02T08:27:05.998Z,76.70
2019-01-02T08:28:05.151Z,76.60
2019-01-02T08:29:05.321Z,76.00
2019-01-02T08:30:05.783Z,75.90
2019-01-02T08:31:08.223Z,75.80
2019-01-02T08:32:07.751Z,75.80
2019-01-02T08:33:05.904Z,75.80
2019-01-02T08:34:10.035Z,76.10
2019-01-02T08:35:05.995Z,76.10
2019-01-02T08:36:05.129Z,76.10
2019-01-02T08:37:05.257Z,75.70
2019-01-02T08:38:10.419Z,75.70
2019-01-02T08:39:05.401Z,75.70
2019-01-02T08:40:05.444Z,75.50
2019-01-02T08:41:08.052Z,75.50
2019-01-02T08:42:05.041Z,75.50
2019-01-02T08:43:05.114Z,75.00
2019-01-02T08:44:07.862Z,74.20
2019-01-02T08:45:05.897Z,74.20
2019-01-02T08:46:05.949Z,74.00
2019-01-02T08:47:07.574Z,74.10
2019-01-02T08:48:07.986Z,74.00
2019-01-02T08:49:05.921Z,74.00
2019-01-02T08:50:05.547Z,74.00
2019-01-02T08:51:05.688Z,74.10
2019-01-02T08:52:05.759Z,74.20
2019-01-02T08:53:05.835Z,74.20
2019-01-02T08:54:08.448Z,73.90
2019-01-02T08:55:05.353Z,73.90
2019-01-02T08:56:05.456Z,73.80
2019-01-02T08:57:05.594Z,73.70
2019-01-02T08:58:08.174Z,73.50
2019-01-02T08:59:05.113Z,73.50
2019-01-02T09:00:05.279Z,73.50
2019-01-02T09:01:07.841Z,73.50
2019-01-02T09:02:05.797Z,73.50
2019-01-02T09:03:08.482Z,73.60
2019-01-02T09:04:05.544Z,73.60
2019-01-02T09:05:05.887Z,73.60
2019-01-02T09:06:08.008Z,73.20
2019-01-02T09:07:07.479Z,73.40
2019-01-02T09:08:05.417Z,73.40
2019-01-02T09:09:05.527Z,73.30
2019-01-02T09:10:08.151Z,73.60
2019-01-02T09:11:07.600Z,73.50
2019-01-02T09:12:05.588Z,73.50
2019-01-02T09:13:08.110Z,73.80
2019-01-02T09:14:07.535Z,73.70
2019-01-02T09:15:05.446Z,73.70
2019-01-02T09:16:08.094Z,73.90
2019-01-02T09:17:05.111Z,74.00
2019-01-02T09:18:07.706Z,73.90
2019-01-02T09:19:08.288Z,73.90
2019-01-02T09:20:05.289Z,73.90
2019-01-02T09:21:07.888Z,74.20
2019-01-02T09:22:08.364Z,74.10
2019-01-02T09:23:07.847Z,74.20
2019-01-02T09:24:05.847Z,74.20
2019-01-02T09:25:05.875Z,74.00
2019-01-02T09:26:05.997Z,73.20
2019-01-02T09:27:05.075Z,73.10
2019-01-02T09:28:07.627Z,73.20
2019-01-02T09:29:05.548Z,73.20
2019-01-02T09:30:07.857Z,73.30
2019-01-02T09:31:05.805Z,73.30
2019-01-02T09:32:05.875Z,73.10
2019-01-02T09:33:05.950Z,72.50
2019-01-02T09:34:07.669Z,72.40
2019-01-02T09:35:05.638Z,72.30
2019-01-02T09:36:05.639Z,72.10
2019-01-02T09:37:05.995Z,72.50
2019-01-02T09:38:05.095Z,72.50
2019-01-02T09:39:07.635Z,71.90
2019-01-02T09:40:05.563Z,71.90
2019-01-02T09:41:05.648Z,71.60
2019-01-02T09:42:05.771Z,70.70
2019-01-02T09:43:05.900Z,69.50
2019-01-02T09:44:05.975Z,69.20
2019-01-02T09:45:05.001Z,69.00
2019-01-02T09:46:05.016Z,67.50
2019-01-02T09:47:05.093Z,66.10
2019-01-02T09:48:07.710Z,65.60
2019-01-02T09:49:05.716Z,65.60
2019-01-02T09:50:05.873Z,65.70
2019-01-02T09:51:06.025Z,65.00
2019-01-02T09:52:05.056Z,63.70
2019-01-02T09:53:07.619Z,63.30
2019-01-02T09:54:10.738Z,63.50
2019-01-02T09:55:08.261Z,63.70
2019-01-02T09:56:05.222Z,63.70
2019-01-02T09:57:05.241Z,63.60
2019-01-02T09:58:07.962Z,63.30
2019-01-02T09:59:05.909Z,63.30
2019-01-02T10:00:08.500Z,62.50
2019-01-02T10:01:08.117Z,62.00
2019-01-02T10:02:05.038Z,62.00
2019-01-02T10:03:05.069Z,61.50
2019-01-02T10:04:05.117Z,61.80
2019-01-02T10:05:05.162Z,62.60
2019-01-02T10:06:05.253Z,62.80
2019-01-02T10:07:10.427Z,63.10
2019-01-02T10:08:05.410Z,63.00
2019-01-02T10:09:05.457Z,63.00
2019-01-02T10:10:08.161Z,59.10
2019-01-02T10:11:07.541Z,58.00
2019-01-02T10:12:05.492Z,58.00
2019-01-02T10:13:05.706Z,57.30
2019-01-02T10:14:05.846Z,56.80
2019-01-02T10:15:09.116Z,56.70
2019-01-02T10:16:07.863Z,56.70
2019-01-02T10:17:08.324Z,56.80
2019-01-02T10:18:05.235Z,56.90
2019-01-02T10:19:05.449Z,56.80
2019-01-02T10:20:05.564Z,56.30
2019-01-02T10:21:05.757Z,56.00
2019-01-02T10:22:05.843Z,56.10
2019-01-02T10:23:05.892Z,56.50
2019-01-02T10:24:08.451Z,56.50
2019-01-02T10:25:07.963Z,56.10
2019-01-02T10:26:05.991Z,56.10
2019-01-02T10:27:07.676Z,53.50
2019-01-02T10:28:05.718Z,53.50
2019-01-02T10:29:05.846Z,53.40
2019-01-02T10:30:07.833Z,53.90
2019-01-02T10:31:05.903Z,53.90
2019-01-02T10:32:05.051Z,54.10
2019-01-02T10:33:05.147Z,53.80
2019-01-02T10:34:10.327Z,53.90
2019-01-02T10:35:05.213Z,53.90
2019-01-02T10:36:05.345Z,54.00
2019-01-02T10:37:07.982Z,53.90
2019-01-02T10:38:05.960Z,53.80
2019-01-02T10:39:05.341Z,53.60
2019-01-02T10:40:05.376Z,53.40
2019-01-02T10:41:05.619Z,53.70
2019-01-02T10:42:10.848Z,53.30
2019-01-02T10:43:08.431Z,53.10
2019-01-02T10:44:05.363Z,53.10
2019-01-02T10:45:05.473Z,53.20
2019-01-02T10:46:05.914Z,53.30
2019-01-02T10:47:05.011Z,53.20
2019-01-02T10:48:07.682Z,53.40
2019-01-02T10:49:08.903Z,53.50
2019-01-02T10:50:08.421Z,52.80
2019-01-02T10:51:07.979Z,52.30
2019-01-02T10:52:05.979Z,52.30
2019-01-02T10:53:05.060Z,52.30
2019-01-02T10:54:05.273Z,52.70
2019-01-02T10:55:05.339Z,53.10
2019-01-02T10:56:05.527Z,53.30
2019-01-02T10:57:07.754Z,52.70
2019-01-02T10:58:05.650Z,52.70
2019-01-02T10:59:08.245Z,53.00
2019-01-02T11:00:05.948Z,53.00
2019-01-02T11:01:05.032Z,52.80
2019-01-02T11:02:07.676Z,53.30
2019-01-02T11:03:05.648Z,53.30
2019-01-02T11:04:05.138Z,53.70
2019-01-02T11:05:05.152Z,54.50
2019-01-02T11:06:05.260Z,54.60
2019-01-02T11:07:07.852Z,55.40
2019-01-02T11:08:05.819Z,55.30
2019-01-02T11:09:05.832Z,55.70
2019-01-02T11:10:06.064Z,56.10
2019-01-02T11:11:05.399Z,56.50
2019-01-02T11:12:05.449Z,56.70
2019-01-02T11:13:05.663Z,57.50
2019-01-02T11:14:08.441Z,60.60
2019-01-02T11:15:07.982Z,61.00
2019-01-02T11:16:06.034Z,61.00
2019-01-02T11:17:05.242Z,62.00
2019-01-02T11:18:07.923Z,65.00
2019-01-02T11:19:05.985Z,65.00
2019-01-02T11:20:05.125Z,66.70
2019-01-02T11:21:05.248Z,67.90
2019-01-02T11:22:05.335Z,69.70
2019-01-02T11:23:07.955Z,72.00
2019-01-02T11:24:08.491Z,72.50
2019-01-02T11:25:05.677Z,72.70
2019-01-02T11:26:11.229Z,74.10
2019-01-02T11:27:05.174Z,74.20
2019-01-02T11:28:07.783Z,80.10
2019-01-02T11:29:05.720Z,80.20
2019-01-02T11:30:08.261Z,80.80
2019-01-02T11:31:05.134Z,80.70
2019-01-02T11:32:05.268Z,80.70
2019-01-02T11:33:08.061Z,79.70
2019-01-02T11:34:05.048Z,79.50
2019-01-02T11:35:05.337Z,79.40
2019-01-02T11:36:05.541Z,79.20
2019-01-02T11:37:05.815Z,79.10
2019-01-02T11:38:05.129Z,78.80
2019-01-02T11:39:05.437Z,78.20
2019-01-02T11:40:05.535Z,77.60
2019-01-02T11:41:05.626Z,77.50
2019-01-02T11:42:05.717Z,76.90
2019-01-02T11:43:05.792Z,76.50
2019-01-02T11:44:08.412Z,75.80
2019-01-02T11:45:05.390Z,75.70
2019-01-02T11:46:05.548Z,75.60
2019-01-02T11:47:05.646Z,75.50
2019-01-02T11:48:05.793Z,75.20
2019-01-02T11:49:05.851Z,75.30
2019-01-02T11:50:06.049Z,74.70
2019-01-02T11:51:05.228Z,74.40
2019-01-02T11:52:08.388Z,74.10
2019-01-02T11:53:10.469Z,73.90
2019-01-02T11:54:05.727Z,73.90
2019-01-02T11:55:08.539Z,73.40
2019-01-02T11:56:05.637Z,73.60
2019-01-02T11:57:06.116Z,73.40
2019-01-02T11:58:05.328Z,73.10
2019-01-02T11:59:05.390Z,72.60
2019-01-02T12:00:10.508Z,71.00
2019-01-02T12:01:08.161Z,70.90
2019-01-02T12:02:05.234Z,70.80
2019-01-02T12:03:05.324Z,70.90
2019-01-02T12:04:07.896Z,67.50
2019-01-02T12:05:05.897Z,67.40
2019-01-02T12:06:05.976Z,65.90
2019-01-02T12:07:05.236Z,65.60
2019-01-02T12:08:05.319Z,65.30
2019-01-02T12:09:10.599Z,65.40
2019-01-02T12:10:08.259Z,64.50
2019-01-02T12:11:05.271Z,64.40
2019-01-02T12:12:05.451Z,64.00
2019-01-02T12:13:07.051Z,62.70
2019-01-02T12:14:05.433Z,61.30
2019-01-02T12:15:10.606Z,58.70
2019-01-02T12:16:05.514Z,58.70
2019-01-02T12:17:05.624Z,57.60
2019-01-02T12:18:05.786Z,57.60
2019-01-02T12:19:05.895Z,55.20
2019-01-02T12:20:08.537Z,54.30
2019-01-02T12:21:05.683Z,54.30
2019-01-02T12:22:05.865Z,54.20
2019-01-02T12:23:06.086Z,54.50
2019-01-02T12:24:05.278Z,54.10
2019-01-02T12:25:05.424Z,53.80
2019-01-02T12:26:08.030Z,52.40
2019-01-02T12:27:05.985Z,52.30
2019-01-02T12:28:05.057Z,52.10
2019-01-02T12:29:05.139Z,52.70
2019-01-02T12:30:10.316Z,55.20
2019-01-02T12:31:07.862Z,55.80
2019-01-02T12:32:05.799Z,55.80
2019-01-02T12:33:07.215Z,56.30
2019-01-02T12:34:10.345Z,57.10
2019-01-02T12:35:05.442Z,57.10
2019-01-02T12:36:10.568Z,57.60
2019-01-02T12:37:05.486Z,57.60
2019-01-02T12:38:05.635Z,58.10
2019-01-02T12:39:10.863Z,58.30
2019-01-02T12:40:05.941Z,58.30
2019-01-02T12:41:05.112Z,58.80
2019-01-02T12:42:05.214Z,58.80
2019-01-02T12:43:05.324Z,59.10
2019-01-02T12:44:05.818Z,59.30
2019-01-02T12:45:08.444Z,59.70
2019-01-02T12:46:05.383Z,59.70
2019-01-02T12:47:05.526Z,59.90
2019-01-02T12:48:08.090Z,59.60
2019-01-02T12:49:07.591Z,59.50
2019-01-02T12:50:08.161Z,59.30
2019-01-02T12:51:05.126Z,59.20
2019-01-02T12:52:07.670Z,58.40
2019-01-02T12:53:05.579Z,58.40